Time;durP1;ratioP1;P1;durP2;ratioP2;P2;SDS_P1;SDS_P2;PMS_P1;PMS_P2;Temp;Humidity;BMP_temperature;BMP_pressure;BME280_temperature;BME280_humidity;BME280_pressure;Samples;Min_cycle;Max_cycle;Signal;HPM_P1;HPM_P2
2021/12/06 00:01:09;;;;;;;7.95;4.97;;;;;;;2.92;100.00;99151.34;8198550;28;20043;-82
2021/12/06 00:05:12;;;;;;;10.57;5.60;;;;;;;2.88;100.00;99157.44;8223504;28;20051;-84
2021/12/06 00:09:18;;;;;;;10.68;6.20;;;;;;;2.82;100.00;99150.13;8221832;28;20047;-82
2021/12/06 00:13:22;;;;;;;10.30;6.78;;;;;;;2.76;100.00;99153.72;8222350;28;20047;-85
2021/12/06 00:17:22;;;;;;;17.48;7.05;;;;;;;2.69;100.00;99159.19;8207206;28;20096;-83
2021/12/06 00:21:24;;;;;;;11.93;6.13;;;;;;;2.60;100.00;99155.88;8201807;28;20843;-84
2021/12/06 00:25:24;;;;;;;9.93;5.75;;;;;;;2.53;100.00;99159.66;8216632;28;20050;-83
2021/12/06 00:29:25;;;;;;;14.10;6.68;;;;;;;2.42;100.00;99170.16;8199697;28;20058;-82
2021/12/06 00:33:26;;;;;;;11.10;6.25;;;;;;;2.36;100.00;99170.16;8197902;28;20075;-84
2021/12/06 00:37:34;;;;;;;12.15;6.82;;;;;;;2.33;100.00;99182.28;8186368;28;20035;-83
2021/12/06 00:41:35;;;;;;;14.20;6.47;;;;;;;2.31;100.00;99189.00;8215005;28;20723;-83
2021/12/06 00:45:37;;;;;;;12.50;6.47;;;;;;;2.30;100.00;99198.22;8232314;28;20210;-83
2021/12/06 00:49:38;;;;;;;12.65;6.53;;;;;;;2.29;100.00;99200.09;8240082;28;20065;-83
2021/12/06 00:53:39;;;;;;;10.30;6.25;;;;;;;2.26;100.00;99209.50;8196437;28;20034;-83
2021/12/06 00:57:40;;;;;;;12.27;7.05;;;;;;;2.24;100.00;99202.59;8231681;28;20043;-83
2021/12/06 01:01:41;;;;;;;11.27;6.80;;;;;;;2.18;100.00;99201.56;8209758;28;20133;-82
2021/12/06 01:05:43;;;;;;;13.63;7.25;;;;;;;2.09;100.00;99208.25;8189846;28;20046;-83
2021/12/06 01:09:43;;;;;;;14.55;7.85;;;;;;;1.99;100.00;99213.25;8204860;28;20043;-82
2021/12/06 01:13:44;;;;;;;14.32;7.35;;;;;;;1.88;100.00;99216.63;8210702;28;20038;-82
2021/12/06 01:17:46;;;;;;;13.45;7.57;;;;;;;1.74;100.00;99223.91;8212491;28;20046;-82
2021/12/06 01:21:54;;;;;;;13.13;7.30;;;;;;;1.69;100.00;99237.25;8198094;28;20070;-82
2021/12/06 01:42:53;;;;;;;15.75;8.20;;;;;;;1.38;100.00;99267.69;8224535;28;20042;-81
2021/12/06 01:46:59;;;;;;;12.98;7.63;;;;;;;1.40;100.00;99269.16;8209357;28;20050;-82
2021/12/06 01:50:59;;;;;;;14.57;7.15;;;;;;;1.45;100.00;99272.09;8208732;28;20043;-83
2021/12/06 01:55:00;;;;;;;13.85;7.78;;;;;;;1.47;100.00;99278.16;8204570;28;20058;-82
2021/12/06 01:59:01;;;;;;;16.90;8.45;;;;;;;1.42;100.00;99279.81;8211952;28;20054;-80
2021/12/06 02:03:03;;;;;;;13.30;7.72;;;;;;;1.41;100.00;99284.41;8230069;28;20520;-82
2021/12/06 02:07:15;;;;;;;12.18;7.68;;;;;;;1.38;100.00;99284.81;8204053;28;20043;-82
2021/12/06 02:11:17;;;;;;;14.13;7.75;;;;;;;1.32;100.00;99291.88;8203999;28;20054;-82
2021/12/06 02:19:31;;;;;;;13.50;7.88;;;;;;;1.19;100.00;99291.84;8222369;28;20043;-83
2021/12/06 02:23:31;;;;;;;14.52;6.90;;;;;;;1.10;100.00;99301.16;8210711;28;20058;-82
2021/12/06 02:27:32;;;;;;;13.18;7.10;;;;;;;1.00;100.00;99298.00;8215792;28;20141;-83
2021/12/06 02:31:34;;;;;;;12.82;7.63;;;;;;;0.86;100.00;99295.22;8202738;28;20466;-82
2021/12/06 02:35:36;;;;;;;13.85;7.32;;;;;;;0.75;100.00;99300.38;8203866;28;20043;-83
2021/12/06 02:39:38;;;;;;;14.00;7.80;;;;;;;0.60;100.00;99305.91;8212279;28;20057;-81
2021/12/06 02:43:40;;;;;;;14.93;8.05;;;;;;;0.49;100.00;99299.13;8209189;28;20043;-83
2021/12/06 02:47:41;;;;;;;16.00;8.23;;;;;;;0.39;100.00;99310.34;8175394;28;20089;-83
2021/12/06 02:51:42;;;;;;;17.20;8.77;;;;;;;0.29;100.00;99309.81;8204175;28;20322;-80
2021/12/06 02:55:43;;;;;;;16.83;9.55;;;;;;;0.21;100.00;99323.53;8209425;28;20038;-81
2021/12/06 02:59:48;;;;;;;17.50;9.25;;;;;;;0.16;100.00;99315.97;8203389;28;20500;-80
2021/12/06 03:03:49;;;;;;;17.83;9.77;;;;;;;0.12;100.00;99314.69;8201322;28;20125;-82
2021/12/06 03:07:57;;;;;;;20.73;10.93;;;;;;;0.09;100.00;99319.63;8193898;28;20038;-82
2021/12/06 03:12:15;;;;;;;18.65;9.80;;;;;;;0.04;100.00;99328.34;8216755;28;20510;-83
2021/12/06 03:16:16;;;;;;;18.23;9.32;;;;;;;-0.03;100.00;99332.84;8218467;28;20494;-80
2021/12/06 03:20:17;;;;;;;23.13;11.13;;;;;;;-0.07;100.00;99337.00;8206259;28;20568;-82
2021/12/06 03:24:18;;;;;;;19.65;10.35;;;;;;;-0.12;100.00;99343.00;8227524;28;20049;-83
2021/12/06 03:28:19;;;;;;;20.58;10.55;;;;;;;-0.14;100.00;99355.06;8188175;28;20093;-82
2021/12/06 03:32:20;;;;;;;21.25;10.32;;;;;;;-0.17;100.00;99360.84;8217950;28;20501;-84
2021/12/06 03:36:23;;;;;;;21.27;10.55;;;;;;;-0.18;100.00;99361.88;8207461;28;20043;-82
2021/12/06 03:40:25;;;;;;;20.73;10.15;;;;;;;-0.18;100.00;99362.69;8203432;28;20731;-82
2021/12/06 03:44:27;;;;;;;21.95;9.63;;;;;;;-0.17;100.00;99366.28;8212752;28;20045;-81
2021/12/06 03:48:27;;;;;;;19.05;8.77;;;;;;;-0.17;100.00;99364.41;8207935;28;20114;-82
2021/12/06 03:52:28;;;;;;;19.88;8.80;;;;;;;-0.20;100.00;99372.91;8221576;28;20042;-81
2021/12/06 03:56:31;;;;;;;;;;;;;;;-0.22;100.00;99369.53;8198485;28;20348;-82
2021/12/06 04:00:33;;;;;;;19.10;9.20;;;;;;;-0.24;100.00;99368.88;8200451;28;20017;-81
2021/12/06 04:04:37;;;;;;;20.48;10.02;;;;;;;-0.24;100.00;99368.88;8211793;28;20054;-81
2021/12/06 04:08:39;;;;;;;;;;;;;;;-0.23;100.00;99381.41;8207988;28;20039;-81
2021/12/06 04:12:40;;;;;;;19.52;8.57;;;;;;;-0.24;100.00;99371.59;8218763;28;19921;-82
2021/12/06 04:16:42;;;;;;;20.52;10.00;;;;;;;-0.25;100.00;99369.91;8187567;28;20039;-82
2021/12/06 04:20:43;;;;;;;25.13;10.90;;;;;;;-0.25;100.00;99380.75;8204897;28;20046;-81
2021/12/06 04:24:45;;;;;;;22.13;11.15;;;;;;;-0.26;100.00;99387.22;8224040;28;20030;-81
2021/12/06 04:28:56;;;;;;;23.55;10.80;;;;;;;-0.26;100.00;99392.63;8214346;28;20042;-82
2021/12/06 04:32:59;;;;;;;23.30;11.05;;;;;;;-0.26;100.00;99404.28;8213978;28;20123;-82
2021/12/06 04:36:59;;;;;;;24.70;12.02;;;;;;;-0.26;100.00;99408.88;8213763;28;20117;-83
2021/12/06 04:41:01;;;;;;;21.70;10.70;;;;;;;-0.22;100.00;99407.44;8201202;28;20062;-81
2021/12/06 04:45:02;;;;;;;21.40;10.80;;;;;;;-0.12;100.00;99415.25;8238877;28;20054;-81
2021/12/06 04:49:06;;;;;;;19.27;10.10;;;;;;;0.03;100.00;99424.22;8215130;28;20137;-82
2021/12/06 04:53:24;;;;;;;18.88;9.35;;;;;;;0.23;100.00;99429.81;8214033;28;20047;-82
2021/12/06 04:57:33;;;;;;;17.13;8.25;;;;;;;0.43;100.00;99428.16;8217426;28;20121;-83
2021/12/06 05:01:34;;;;;;;14.20;7.18;;;;;;;0.64;100.00;99437.31;8213555;28;20058;-81
2021/12/06 05:05:43;;;;;;;12.83;6.30;;;;;;;0.80;100.00;99437.03;8195069;28;20074;-81
2021/12/06 05:09:45;;;;;;;16.88;7.40;;;;;;;0.96;100.00;99448.66;8204154;28;20558;-80
2021/12/06 05:13:48;;;;;;;11.13;6.22;;;;;;;1.09;100.00;99446.03;8230130;28;20035;-82
2021/12/06 05:17:50;;;;;;;;;;;;;;;1.17;100.00;99448.59;8210758;28;20106;-80
2021/12/06 05:21:51;;;;;;;14.02;6.05;;;;;;;1.24;100.00;99463.06;8220272;28;20302;-82
2021/12/06 05:25:52;;;;;;;14.45;6.80;;;;;;;1.20;100.00;99464.50;8222359;28;20385;-82
2021/12/06 05:29:57;;;;;;;20.85;9.50;;;;;;;1.09;100.00;99475.88;8212275;28;20050;-82
2021/12/06 05:34:02;;;;;;;20.20;8.98;;;;;;;1.07;100.00;99484.25;8231071;28;20042;-81
2021/12/06 05:38:03;;;;;;;24.85;11.40;;;;;;;1.03;100.00;99495.66;8219353;28;20038;-82
2021/12/06 05:42:10;;;;;;;16.90;8.38;;;;;;;0.93;100.00;99506.03;8229183;28;20106;-83
2021/12/06 05:46:12;;;;;;;18.98;9.43;;;;;;;0.79;100.00;99522.16;8233918;28;20050;-82
2021/12/06 05:50:13;;;;;;;17.25;9.07;;;;;;;0.85;100.00;99523.25;8213767;28;20070;-80
2021/12/06 05:54:14;;;;;;;17.60;8.73;;;;;;;0.95;100.00;99514.78;8233756;28;20054;-81
2021/12/06 05:58:17;;;;;;;19.13;9.23;;;;;;;1.03;100.00;99515.50;8222092;28;20130;-81
2021/12/06 06:02:18;;;;;;;20.55;8.98;;;;;;;1.14;100.00;99523.13;8216272;28;20294;-82
2021/12/06 06:06:19;;;;;;;21.10;9.80;;;;;;;1.25;100.00;99537.16;8203311;28;20049;-81
2021/12/06 06:10:19;;;;;;;12.77;7.70;;;;;;;1.32;100.00;99538.09;8225394;28;20046;-82
2021/12/06 06:14:20;;;;;;;12.23;7.10;;;;;;;1.40;100.00;99543.38;8230722;28;20042;-82
2021/12/06 06:18:20;;;;;;;11.63;6.82;;;;;;;1.46;100.00;99549.88;8225582;28;20086;-80
2021/12/06 06:22:21;;;;;;;11.50;6.47;;;;;;;1.53;100.00;99548.06;8225010;28;20516;-80
2021/12/06 06:26:22;;;;;;;17.60;8.23;;;;;;;1.59;100.00;99560.84;8224843;28;20059;-80
2021/12/06 06:30:24;;;;;;;10.65;6.07;;;;;;;1.54;100.00;99561.44;8198288;28;20370;-83
2021/12/06 06:34:25;;;;;;;12.50;6.50;;;;;;;1.57;100.00;99560.19;8211676;28;20081;-82
2021/12/06 06:38:26;;;;;;;13.68;6.05;;;;;;;1.62;100.00;99560.44;8187677;28;20043;-82
2021/12/06 06:42:27;;;;;;;11.38;5.80;;;;;;;1.70;100.00;99563.03;8202124;28;20380;-82
2021/12/06 06:46:27;;;;;;;13.00;5.70;;;;;;;1.74;100.00;99575.16;8198455;28;20042;-83
2021/12/06 06:50:29;;;;;;;14.82;5.53;;;;;;;1.69;100.00;99577.63;8206535;28;20117;-84
2021/12/06 06:54:29;;;;;;;12.15;5.97;;;;;;;1.70;100.00;99584.75;8224860;28;20035;-85
2021/12/06 06:58:30;;;;;;;8.57;5.25;;;;;;;1.73;100.00;99587.06;8219361;28;20078;-84
2021/12/06 07:02:30;;;;;;;8.75;5.10;;;;;;;1.76;100.00;99586.69;8219339;28;20054;-82
2021/12/06 07:06:31;;;;;;;8.98;4.53;;;;;;;1.81;100.00;99599.66;8203685;28;20141;-83
2021/12/06 07:10:31;;;;;;;9.75;4.43;;;;;;;1.85;100.00;99598.22;8200961;28;20464;-82
2021/12/06 07:14:31;;;;;;;10.45;4.68;;;;;;;1.88;100.00;99608.69;8212495;28;20455;-82
2021/12/06 07:18:32;;;;;;;13.50;8.63;;;;;;;1.88;100.00;99613.31;8222866;28;20523;-82
2021/12/06 07:22:32;;;;;;;9.43;5.47;;;;;;;1.87;100.00;99607.00;8225999;28;20121;-81
2021/12/06 07:26:35;;;;;;;10.00;5.27;;;;;;;1.95;100.00;99622.31;8211003;28;20109;-83
2021/12/06 07:30:35;;;;;;;9.13;4.03;;;;;;;2.03;100.00;99617.56;8198056;28;20408;-82
2021/12/06 07:34:36;;;;;;;8.23;4.03;;;;;;;2.10;100.00;99624.94;8200980;28;20038;-81
2021/12/06 07:38:39;;;;;;;10.05;4.18;;;;;;;2.17;100.00;99632.09;8215060;28;20514;-83
2021/12/06 07:42:40;;;;;;;11.43;6.93;;;;;;;2.13;100.00;99646.28;8216054;28;20559;-82
2021/12/06 07:46:41;;;;;;;12.50;6.03;;;;;;;2.01;100.00;99652.25;8222825;28;20082;-82
2021/12/06 07:50:41;;;;;;;13.85;6.03;;;;;;;2.03;100.00;99660.22;8218877;28;20444;-83
2021/12/06 07:54:42;;;;;;;10.07;5.45;;;;;;;2.11;100.00;99657.34;8215413;28;20031;-84
2021/12/06 07:58:43;;;;;;;11.65;5.45;;;;;;;2.23;100.00;99655.78;8188129;28;20093;-82
2021/12/06 08:02:44;;;;;;;13.32;5.90;;;;;;;2.33;100.00;99658.13;8222728;28;20115;-84
2021/12/06 08:06:44;;;;;;;11.55;6.30;;;;;;;2.38;100.00;99665.66;8202875;28;20050;-79
2021/12/06 08:10:49;;;;;;;14.15;6.65;;;;;;;2.47;100.00;99667.22;8197951;28;20644;-81
2021/12/06 08:14:49;;;;;;;13.25;6.70;;;;;;;2.47;100.00;99672.66;8196185;28;20404;-80
2021/12/06 08:18:50;;;;;;;12.80;6.60;;;;;;;2.41;100.00;99659.81;8205830;28;20036;-79
2021/12/06 08:22:51;;;;;;;16.42;7.93;;;;;;;2.39;100.00;99670.09;8195006;28;20302;-80
2021/12/06 08:26:51;;;;;;;13.40;7.63;;;;;;;2.31;100.00;99662.06;8204575;28;20653;-79
2021/12/06 08:30:52;;;;;;;16.08;8.40;;;;;;;2.30;100.00;99663.97;8206475;28;20039;-80
2021/12/06 08:34:53;;;;;;;15.85;8.88;;;;;;;2.32;100.00;99658.31;8202362;28;20035;-79
2021/12/06 08:38:54;;;;;;;15.90;9.15;;;;;;;2.25;100.00;99659.09;8220268;28;20035;-80
2021/12/06 08:42:56;;;;;;;27.85;11.15;;;;;;;2.25;100.00;99663.72;8214445;28;20046;-80
2021/12/06 08:46:57;;;;;;;15.95;9.45;;;;;;;2.36;100.00;99670.47;8198576;28;20086;-80
2021/12/06 08:51:00;;;;;;;22.50;11.65;;;;;;;2.20;100.00;99683.34;8207816;28;20212;-79
2021/12/06 08:55:00;;;;;;;23.02;11.10;;;;;;;2.10;100.00;99685.56;8219706;28;20062;-80
2021/12/06 08:59:02;;;;;;;21.52;11.68;;;;;;;2.09;100.00;99689.34;8207062;28;20055;-81
2021/12/06 09:03:03;;;;;;;20.95;11.70;;;;;;;2.18;100.00;99681.88;8210495;28;20051;-80
2021/12/06 09:07:12;;;;;;;17.85;10.27;;;;;;;2.28;100.00;99685.91;8208979;28;20051;-79
2021/12/06 09:11:13;;;;;;;21.58;10.60;;;;;;;2.50;100.00;99685.84;8229799;28;20055;-80
2021/12/06 09:15:17;;;;;;;18.60;9.98;;;;;;;2.67;100.00;99683.59;8221248;28;20058;-80
2021/12/06 09:19:18;;;;;;;17.33;10.27;;;;;;;2.68;100.00;99680.69;8205699;28;20051;-80
2021/12/06 09:23:19;;;;;;;20.43;10.90;;;;;;;2.72;100.00;99681.13;8213008;28;20045;-81
2021/12/06 09:27:21;;;;;;;16.63;9.93;;;;;;;2.77;100.00;99677.78;8231118;28;20070;-80
2021/12/06 09:31:21;;;;;;;18.27;9.60;;;;;;;2.73;100.00;99677.34;8218539;28;20055;-79
2021/12/06 09:35:26;;;;;;;19.65;10.40;;;;;;;2.60;100.00;99675.41;8209001;28;20407;-81
2021/12/06 09:39:26;;;;;;;20.95;11.05;;;;;;;2.51;100.00;99684.78;8221076;28;20062;-81
2021/12/06 09:43:28;;;;;;;18.98;10.68;;;;;;;2.54;100.00;99676.22;8226536;28;21242;-81
2021/12/06 09:47:28;;;;;;;20.55;10.75;;;;;;;2.63;100.00;99677.75;8203838;28;20039;-81
2021/12/06 09:51:29;;;;;;;17.75;9.70;;;;;;;2.74;100.00;99677.16;8225952;28;20483;-80
2021/12/06 09:55:32;;;;;;;16.48;10.07;;;;;;;2.74;99.56;99671.72;8221293;28;20091;-80
2021/12/06 09:59:35;;;;;;;16.98;10.73;;;;;;;2.86;100.00;99671.16;8221440;28;20043;-81
2021/12/06 10:03:36;;;;;;;21.38;11.75;;;;;;;3.00;100.00;99675.59;8230774;28;20054;-80
2021/12/06 10:07:37;;;;;;;19.63;9.90;;;;;;;3.02;99.74;99672.66;8213723;28;20046;-79
2021/12/06 10:11:38;;;;;;;20.95;10.98;;;;;;;3.08;99.26;99677.28;8225206;28;20543;-79
2021/12/06 10:15:41;;;;;;;18.38;9.70;;;;;;;3.17;99.30;99679.63;8218301;28;20480;-82
2021/12/06 10:19:43;;;;;;;28.83;11.95;;;;;;;3.19;98.24;99676.72;8226051;28;20049;-80
2021/12/06 10:23:44;;;;;;;14.17;8.27;;;;;;;3.26;98.16;99682.16;8220465;28;20038;-79
2021/12/06 10:27:56;;;;;;;19.23;10.40;;;;;;;3.30;97.28;99669.81;8223643;28;20474;-80
2021/12/06 10:31:56;;;;;;;19.25;10.65;;;;;;;3.32;97.57;99676.72;8213364;28;20043;-80
2021/12/06 10:36:01;;;;;;;19.83;10.65;;;;;;;3.18;97.49;99675.00;8213480;28;20046;-81
2021/12/06 10:40:06;;;;;;;20.17;10.75;;;;;;;3.20;99.04;99679.22;8188215;28;20120;-79
2021/12/06 10:44:12;;;;;;;49.80;15.63;;;;;;;3.41;98.65;99672.75;8221459;28;20838;-79
2021/12/06 10:48:12;;;;;;;23.67;13.20;;;;;;;3.64;96.66;99668.81;8228145;28;20042;-82
2021/12/06 10:52:24;;;;;;;27.95;14.27;;;;;;;3.46;96.54;99669.44;8204470;28;20069;-81
2021/12/06 10:56:38;;;;;;;29.95;14.30;;;;;;;3.39;97.95;99677.59;8226517;28;20046;-81
2021/12/06 11:00:47;;;;;;;32.38;16.65;;;;;;;3.11;98.86;99691.34;8223212;28;20043;-81
2021/12/06 11:04:48;;;;;;;31.85;15.63;;;;;;;3.32;100.00;99692.25;8215355;28;20035;-80
2021/12/06 11:08:51;;;;;;;30.88;16.02;;;;;;;3.57;98.42;99690.63;8221251;28;20074;-81
2021/12/06 11:13:10;;;;;;;27.75;15.18;;;;;;;3.52;97.87;99692.28;8218946;28;20522;-81
2021/12/06 11:17:18;;;;;;;25.55;14.48;;;;;;;3.58;98.50;99680.56;8210780;28;20094;-82
2021/12/06 11:21:27;;;;;;;33.05;15.00;;;;;;;3.74;97.80;99679.31;8217566;28;20087;-80
2021/12/06 11:25:33;;;;;;;31.88;15.30;;;;;;;3.92;97.15;99671.34;8205636;28;20109;-81
2021/12/06 11:29:46;;;;;;;34.30;16.50;;;;;;;3.84;97.09;99669.69;8222319;28;20069;-80
2021/12/06 11:34:02;;;;;;;32.58;16.08;;;;;;;4.03;96.71;99667.97;8203698;28;20034;-80
2021/12/06 11:38:04;;;;;;;30.20;16.20;;;;;;;4.13;95.72;99666.72;8203254;28;20054;-80
2021/12/06 11:42:04;;;;;;;32.67;16.88;;;;;;;3.98;95.07;99662.31;8221897;28;20053;-81
2021/12/06 11:46:08;;;;;;;33.47;16.83;;;;;;;4.00;96.37;99668.41;8206289;28;20459;-80
2021/12/06 11:50:08;;;;;;;34.85;17.33;;;;;;;4.32;96.81;99671.31;8228280;28;20046;-82
2021/12/06 11:54:09;;;;;;;32.95;17.08;;;;;;;4.38;95.08;99666.91;8205248;28;20041;-81
2021/12/06 11:58:33;;;;;;;42.03;18.95;;;;;;;4.42;95.83;99668.16;8208415;28;20054;-80
2021/12/06 12:02:35;;;;;;;40.83;19.65;;;;;;;4.36;95.12;99671.72;8216736;28;20526;-80
2021/12/06 12:06:38;;;;;;;36.45;16.60;;;;;;;4.36;96.32;99669.00;8216775;28;20048;-80
2021/12/06 12:10:47;;;;;;;32.92;16.33;;;;;;;4.62;95.06;99671.66;8207451;28;20174;-81
2021/12/06 12:14:54;;;;;;;32.72;16.35;;;;;;;4.64;93.32;99668.69;8200562;28;20030;-82
2021/12/06 12:18:55;;;;;;;27.48;14.77;;;;;;;4.63;93.73;99675.22;8200458;28;20043;-81
2021/12/06 12:22:58;;;;;;;31.58;15.02;;;;;;;4.49;93.96;99672.53;8216838;28;20050;-81
2021/12/06 12:27:10;;;;;;;33.20;17.50;;;;;;;4.28;93.23;99675.50;8215834;28;20126;-82
2021/12/06 12:31:11;;;;;;;33.00;14.50;;;;;;;4.14;93.72;99668.41;8206848;28;20074;-83
2021/12/06 12:35:15;;;;;;;54.03;16.75;;;;;;;4.00;94.49;99662.94;8228352;28;20070;-83
2021/12/06 12:39:18;;;;;;;33.38;16.25;;;;;;;4.05;94.72;99654.16;8218200;28;20051;-80
2021/12/06 12:43:25;;;;;;;;;;;;;;;4.01;95.01;99644.69;8231784;28;20055;-80
2021/12/06 12:47:29;;;;;;;38.08;16.55;;;;;;;4.06;94.38;99644.91;8232802;28;20383;-82
2021/12/06 12:51:35;;;;;;;33.33;16.23;;;;;;;4.13;94.83;99644.91;8228558;28;20090;-80
2021/12/06 12:55:42;;;;;;;34.03;16.40;;;;;;;4.15;94.63;99646.38;8217922;28;20108;-81
2021/12/06 12:59:43;;;;;;;36.40;17.50;;;;;;;4.27;95.59;99646.56;8232201;28;20046;-82
2021/12/06 13:03:53;;;;;;;34.78;16.10;;;;;;;4.15;93.86;99640.09;8204247;28;20057;-80
2021/12/06 13:07:59;;;;;;;33.78;15.80;;;;;;;4.13;94.77;99634.00;8226539;28;20483;-81
2021/12/06 13:12:08;;;;;;;34.78;16.58;;;;;;;4.15;94.67;99635.47;8203673;28;20048;-81
2021/12/06 13:16:36;;;;;;;41.28;18.38;;;;;;;4.26;94.95;99633.97;8208912;28;20050;-81
2021/12/06 13:20:37;;;;;;;39.42;19.85;;;;;;;4.20;93.24;99630.22;8227556;28;20046;-82
2021/12/06 13:24:51;;;;;;;38.15;17.25;;;;;;;4.27;94.33;99620.13;8209974;28;20519;-82
2021/12/06 13:29:08;;;;;;;33.63;17.00;;;;;;;4.38;94.67;99610.44;8186677;28;20172;-79
2021/12/06 13:33:11;;;;;;;41.08;18.65;;;;;;;4.53;94.61;99611.03;8213117;28;20044;-82
2021/12/06 13:37:12;;;;;;;;;;;;;;;4.53;93.59;99605.56;8215027;28;20089;-80
2021/12/06 13:41:23;;;;;;;30.93;16.40;;;;;;;4.65;93.30;99596.72;8224829;28;19917;-79
2021/12/06 13:45:29;;;;;;;35.97;16.50;;;;;;;4.63;92.64;99586.00;8221833;28;20302;-81
2021/12/06 13:49:29;;;;;;;34.58;17.08;;;;;;;4.67;92.21;99586.38;8207024;28;20051;-82
2021/12/06 13:53:34;;;;;;;35.85;17.30;;;;;;;4.69;91.90;99590.59;8231483;28;20044;-80
2021/12/06 13:57:34;;;;;;;34.15;16.63;;;;;;;4.65;90.88;99589.34;8234032;28;20093;-82
2021/12/06 14:01:38;;;;;;;26.27;15.20;;;;;;;4.71;90.58;99587.66;8231156;28;20500;-81
2021/12/06 14:05:42;;;;;;;;;;;;;;;4.79;90.28;99593.69;8231534;28;20122;-80
2021/12/06 14:09:47;;;;;;;22.30;11.75;;;;;;;5.06;89.97;99581.78;8217367;28;19914;-82
2021/12/06 14:13:49;;;;;;;17.58;10.30;;;;;;;5.08;87.55;99583.22;8223775;28;20049;-81
2021/12/06 14:17:53;;;;;;;23.48;11.23;;;;;;;5.16;87.16;99569.31;8228031;28;20516;-82
2021/12/06 14:21:55;;;;;;;20.05;10.20;;;;;;;5.11;87.69;99582.78;8230402;28;20075;-80
2021/12/06 14:26:02;;;;;;;22.08;10.70;;;;;;;4.98;89.05;99586.44;8220435;28;20157;-82
2021/12/06 14:30:08;;;;;;;23.05;10.15;;;;;;;4.77;87.51;99593.06;8223610;28;20047;-82
2021/12/06 14:34:09;;;;;;;23.65;11.05;;;;;;;4.46;88.67;99598.44;8194693;28;20404;-81
2021/12/06 14:38:12;;;;;;;25.05;12.98;;;;;;;4.22;89.25;99595.38;8217929;28;20515;-80
2021/12/06 14:42:17;;;;;;;25.43;13.23;;;;;;;4.17;90.41;99597.91;8207775;28;20413;-82
2021/12/06 14:46:18;;;;;;;29.42;14.43;;;;;;;4.27;91.37;99603.75;8215059;28;20047;-81
2021/12/06 14:50:59;;;;;;;31.88;15.32;;;;;;;4.34;90.68;99603.72;8207804;28;20054;-80
2021/12/06 14:59:33;;;;;;;37.00;18.42;;;;;;;4.33;91.14;99591.97;8207871;28;20048;-81
2021/12/06 15:03:39;;;;;;;32.65;17.45;;;;;;;4.32;91.28;99594.94;8204394;28;20047;-80
2021/12/06 15:07:39;;;;;;;33.67;16.65;;;;;;;4.35;92.15;99591.78;8202543;28;20058;-80
2021/12/06 15:11:41;;;;;;;37.83;17.42;;;;;;;4.36;91.91;99584.44;8226543;28;20125;-80
2021/12/06 15:15:45;;;;;;;36.08;17.70;;;;;;;4.36;91.78;99582.53;8231945;28;20043;-81
2021/12/06 15:19:47;;;;;;;37.55;16.88;;;;;;;4.37;92.82;99581.47;8230447;28;20043;-79
2021/12/06 15:23:51;;;;;;;35.55;16.80;;;;;;;4.30;92.20;99575.22;8216078;28;20320;-80
2021/12/06 15:27:52;;;;;;;36.15;17.60;;;;;;;4.23;93.22;99563.50;8221422;28;20420;-79
2021/12/06 15:31:56;;;;;;;39.58;18.15;;;;;;;4.20;93.43;99562.03;8235273;28;20042;-79
2021/12/06 15:36:07;;;;;;;37.03;16.98;;;;;;;4.22;93.64;99556.34;8225756;28;20115;-80
2021/12/06 15:40:11;;;;;;;37.08;17.30;;;;;;;4.23;92.87;99544.41;8201762;28;20050;-80
2021/12/06 15:44:35;;;;;;;40.92;18.48;;;;;;;4.26;93.78;99538.53;8222548;28;20134;-81
2021/12/06 15:48:37;;;;;;;;;;;;;;;4.16;93.24;99538.94;8218591;28;20385;-81
2021/12/06 15:52:42;;;;;;;30.43;16.20;;;;;;;4.08;93.56;99526.41;8225845;28;19929;-80
2021/12/06 15:56:43;;;;;;;31.63;16.80;;;;;;;4.01;93.92;99533.75;8223712;28;20043;-82
2021/12/06 16:00:59;;;;;;;31.50;14.98;;;;;;;3.96;95.31;99535.47;8222049;28;20408;-81
2021/12/06 16:05:08;;;;;;;31.88;15.55;;;;;;;3.89;95.39;99522.66;8204128;28;20051;-80
2021/12/06 16:09:13;;;;;;;31.63;16.23;;;;;;;3.85;95.75;99518.69;8206233;28;20046;-80
2021/12/06 16:17:44;;;;;;;31.45;15.65;;;;;;;3.76;96.33;99513.69;8219238;28;20075;-82
2021/12/06 16:21:48;;;;;;;33.60;15.60;;;;;;;3.68;97.51;99509.31;8209530;28;20042;-81
2021/12/06 16:25:53;;;;;;;28.23;15.07;;;;;;;3.59;97.99;99502.41;8212577;28;20038;-81
2021/12/06 16:29:53;;;;;;;31.67;16.25;;;;;;;3.61;97.66;99516.66;8197019;28;20473;-80
2021/12/06 16:33:59;;;;;;;24.08;12.68;;;;;;;3.54;97.59;99511.22;8217123;28;20043;-79
2021/12/06 16:38:26;;;;;;;24.02;13.18;;;;;;;3.56;97.10;99500.94;8201905;28;20042;-79
2021/12/06 16:42:37;;;;;;;30.52;13.45;;;;;;;3.58;96.51;99498.00;8203692;28;20055;-81
2021/12/06 16:46:43;;;;;;;23.52;12.25;;;;;;;3.57;96.58;99499.03;8222311;28;20097;-80
2021/12/06 16:50:47;;;;;;;24.63;12.50;;;;;;;3.56;96.43;99498.22;8199037;28;20046;-80
2021/12/06 16:54:57;;;;;;;20.70;11.45;;;;;;;3.58;96.48;99504.28;8197417;28;20046;-81
2021/12/06 16:59:13;;;;;;;20.73;10.52;;;;;;;3.54;96.13;99504.91;8210733;28;20047;-81
2021/12/06 17:03:20;;;;;;;22.25;10.98;;;;;;;3.54;96.75;99499.47;8206304;28;20054;-80
2021/12/06 17:07:35;;;;;;;20.27;11.25;;;;;;;3.55;96.11;99493.81;8219570;28;20043;-79
2021/12/06 17:11:37;;;;;;;24.77;11.93;;;;;;;3.51;96.51;99484.41;8193280;28;20408;-79
2021/12/06 17:15:40;;;;;;;19.35;10.40;;;;;;;3.52;96.13;99486.06;8222907;28;20050;-81
2021/12/06 17:19:42;;;;;;;19.95;10.80;;;;;;;3.50;96.17;99482.72;8207938;28;20101;-80
2021/12/06 17:23:44;;;;;;;19.38;9.80;;;;;;;3.51;95.75;99487.13;8202774;28;20031;-80
2021/12/06 17:27:48;;;;;;;20.98;11.05;;;;;;;3.37;95.87;99477.31;8222915;28;20050;-80
2021/12/06 17:31:56;;;;;;;23.88;12.18;;;;;;;3.18;96.18;99481.69;8207580;28;20463;-79
2021/12/06 17:36:00;;;;;;;20.25;10.27;;;;;;;3.03;97.54;99473.72;8218672;28;20054;-81
2021/12/06 17:40:01;;;;;;;18.13;9.63;;;;;;;3.09;98.04;99472.06;8212014;28;20050;-79
2021/12/06 17:44:04;;;;;;;16.23;8.15;;;;;;;3.04;98.02;99461.00;8210825;28;20078;-81
2021/12/06 17:48:05;;;;;;;12.98;6.65;;;;;;;2.93;97.68;99455.09;8217765;28;20427;-81
2021/12/06 17:52:06;;;;;;;12.00;6.10;;;;;;;2.85;97.64;99454.47;8210016;28;20035;-80
2021/12/06 17:56:08;;;;;;;10.80;5.95;;;;;;;2.79;97.46;99447.16;8212307;28;20077;-80
2021/12/06 18:00:11;;;;;;;13.15;6.00;;;;;;;2.72;97.75;99445.25;8221090;28;20038;-81
2021/12/06 18:04:22;;;;;;;8.48;4.55;;;;;;;2.82;98.08;99457.59;8226849;28;20050;-80
2021/12/06 18:08:26;;;;;;;9.30;4.95;;;;;;;2.93;97.56;99454.28;8222185;28;20054;-80
2021/12/06 18:12:27;;;;;;;8.35;4.68;;;;;;;2.96;97.32;99453.84;8217511;28;20108;-80
2021/12/06 18:16:27;;;;;;;10.30;4.43;;;;;;;2.91;96.72;99456.34;8225907;28;20051;-81
2021/12/06 18:20:28;;;;;;;11.65;4.80;;;;;;;2.79;96.76;99447.97;8228354;28;20217;-81
2021/12/06 18:24:30;;;;;;;13.05;6.68;;;;;;;2.70;96.77;99449.22;8201717;28;20054;-78
2021/12/06 18:28:34;;;;;;;11.23;6.82;;;;;;;2.60;96.72;99449.63;8213344;28;20685;-81
2021/12/06 18:32:35;;;;;;;9.70;5.57;;;;;;;2.52;96.75;99452.56;8224156;28;20050;-81
2021/12/06 18:36:41;;;;;;;8.38;4.32;;;;;;;2.44;96.74;99445.44;8223248;28;20042;-82
2021/12/06 18:40:48;;;;;;;6.28;3.83;;;;;;;2.49;96.79;99453.78;8221551;28;20046;-82
2021/12/06 18:44:49;;;;;;;10.15;4.35;;;;;;;2.57;96.57;99455.50;8218633;28;20042;-82
2021/12/06 18:48:51;;;;;;;8.48;3.80;;;;;;;2.65;96.27;99449.88;8208796;28;20049;-82
2021/12/06 18:52:52;;;;;;;7.60;3.90;;;;;;;2.72;95.34;99453.41;8213837;28;20137;-82
2021/12/06 18:56:52;;;;;;;10.65;4.85;;;;;;;2.79;95.19;99442.53;8208245;28;20054;-82
2021/12/06 19:00:55;;;;;;;9.95;4.55;;;;;;;2.84;94.61;99441.91;8198381;28;20047;-82
2021/12/06 19:04:55;;;;;;;6.57;4.35;;;;;;;2.73;93.10;99436.03;8202110;28;20057;-82
2021/12/06 19:08:55;;;;;;;9.90;4.82;;;;;;;2.66;93.95;99442.53;8197541;28;20393;-81
2021/12/06 19:12:56;;;;;;;9.55;5.60;;;;;;;2.67;94.62;99445.03;8223664;28;20043;-80
2021/12/06 19:16:57;;;;;;;8.73;5.28;;;;;;;2.76;94.61;99434.78;8216662;28;20104;-81
2021/12/06 19:20:57;;;;;;;9.75;5.45;;;;;;;2.85;94.19;99429.97;8201546;28;20050;-81
2021/12/06 19:24:58;;;;;;;11.05;4.95;;;;;;;2.84;93.68;99422.88;8216332;28;20133;-82